Amapala, Honduras
Current Conditions -  °F | °C
As of 10:00 PM on Wednesday 28 Jan 2015 (Local Time) from MHTG Reporting Station
Few Clouds Few Clouds  
Wind Chill: 16°   Ceiling: Unl
Heat Index: 16°   Visibility: 6mi
Dew Point: 12°   Wind: 9mph
Humidity: 77%   Direction: 350°N
Pressure: 30.15"   Gusts: NA
Location:  13.27°N, 87.65°W
Report Text: MHTG 290400Z 35008KT 9999 FEW030 16/12 Q1021 A3015 NOSIG
Loading
Personal Weather Stations






























Interactive Weather Map New forecast layout! Learn more

10-Day Weather Forecast

Advertisements
Track Severe Weather on mobile